sensor_id;sensor_type;location;lat;lon;timestamp;pressure;altitude;pressure_sealevel;temperature;humidity
62557;BME280;48612;50.742;-1.226;2022-09-03T00:01:28;98330.53;;;15.63;100.00
62557;BME280;48612;50.742;-1.226;2022-09-03T00:04:01;98332.69;;;15.61;100.00
62557;BME280;48612;50.742;-1.226;2022-09-03T00:06:36;98328.47;;;15.60;100.00
62557;BME280;48612;50.742;-1.226;2022-09-03T00:09:08;98319.56;;;15.56;100.00
62557;BME280;48612;50.742;-1.226;2022-09-03T00:12:08;98318.13;;;15.58;100.00
62557;BME280;48612;50.742;-1.226;2022-09-03T00:14:46;98296.84;;;15.58;100.00
62557;BME280;48612;50.742;-1.226;2022-09-03T00:17:17;98282.63;;;15.54;100.00
62557;BME280;48612;50.742;-1.226;2022-09-03T00:19:57;98289.03;;;15.53;100.00
62557;BME280;48612;50.742;-1.226;2022-09-03T00:22:37;98277.00;;;15.56;100.00
62557;BME280;48612;50.742;-1.226;2022-09-03T00:25:07;98271.53;;;15.52;100.00
62557;BME280;48612;50.742;-1.226;2022-09-03T00:27:39;98271.53;;;15.52;100.00
62557;BME280;48612;50.742;-1.226;2022-09-03T00:30:12;98267.28;;;15.51;100.00
62557;BME280;48612;50.742;-1.226;2022-09-03T00:32:42;98263.06;;;15.50;100.00
62557;BME280;48612;50.742;-1.226;2022-09-03T00:35:31;98258.97;;;15.44;100.00
62557;BME280;48612;50.742;-1.226;2022-09-03T00:37:59;98267.28;;;15.42;100.00
62557;BME280;48612;50.742;-1.226;2022-09-03T00:40:46;98270.25;;;15.41;100.00
62557;BME280;48612;50.742;-1.226;2022-09-03T00:43:36;98262.59;;;15.39;100.00
62557;BME280;48612;50.742;-1.226;2022-09-03T00:46:16;98244.25;;;15.38;100.00
62557;BME280;48612;50.742;-1.226;2022-09-03T00:51:40;98262.88;;;15.29;100.00
62557;BME280;48612;50.742;-1.226;2022-09-03T01:00:11;98271.63;;;15.21;100.00
62557;BME280;48612;50.742;-1.226;2022-09-03T01:05:40;98278.78;;;15.20;100.00
62557;BME280;48612;50.742;-1.226;2022-09-03T01:08:45;98285.03;;;15.16;100.00
62557;BME280;48612;50.742;-1.226;2022-09-03T01:12:38;98283.31;;;15.11;100.00
62557;BME280;48612;50.742;-1.226;2022-09-03T01:14:55;98288.16;;;15.09;100.00
62557;BME280;48612;50.742;-1.226;2022-09-03T01:20:12;98279.22;;;15.05;100.00
62557;BME280;48612;50.742;-1.226;2022-09-03T01:30:52;98275.63;;;15.10;100.00
62557;BME280;48612;50.742;-1.226;2022-09-03T01:33:34;98274.09;;;15.09;100.00
62557;BME280;48612;50.742;-1.226;2022-09-03T01:36:25;98285.81;;;15.08;100.00
62557;BME280;48612;50.742;-1.226;2022-09-03T01:58:18;98227.50;;;15.20;100.00
62557;BME280;48612;50.742;-1.226;2022-09-03T02:00:50;98205.94;;;15.22;100.00
62557;BME280;48612;50.742;-1.226;2022-09-03T02:03:22;98202.69;;;15.25;100.00
62557;BME280;48612;50.742;-1.226;2022-09-03T02:05:48;98200.47;;;15.27;100.00
62557;BME280;48612;50.742;-1.226;2022-09-03T02:08:17;98199.38;;;15.28;100.00
62557;BME280;48612;50.742;-1.226;2022-09-03T02:10:49;98197.69;;;15.32;100.00
62557;BME280;48612;50.742;-1.226;2022-09-03T02:15:52;98178.75;;;15.33;100.00
62557;BME280;48612;50.742;-1.226;2022-09-03T02:18:27;98170.47;;;15.35;100.00
62557;BME280;48612;50.742;-1.226;2022-09-03T02:20:54;98162.50;;;15.35;100.00
62557;BME280;48612;50.742;-1.226;2022-09-03T02:23:20;98161.38;;;15.36;100.00
62557;BME280;48612;50.742;-1.226;2022-09-03T02:25:50;98158.09;;;15.39;100.00
62557;BME280;48612;50.742;-1.226;2022-09-03T02:28:16;98161.38;;;15.36;100.00
62557;BME280;48612;50.742;-1.226;2022-09-03T02:30:42;98166.09;;;15.39;100.00
62557;BME280;48612;50.742;-1.226;2022-09-03T02:33:08;98157.00;;;15.40;100.00
62557;BME280;48612;50.742;-1.226;2022-09-03T02:35:34;98161.22;;;15.41;100.00
62557;BME280;48612;50.742;-1.226;2022-09-03T02:38:15;98150.13;;;15.39;100.00
62557;BME280;48612;50.742;-1.226;2022-09-03T02:40:42;98143.56;;;15.36;100.00
62557;BME280;48612;50.742;-1.226;2022-09-03T02:43:14;98151.69;;;15.40;100.00
62557;BME280;48612;50.742;-1.226;2022-09-03T02:45:45;98154.34;;;15.40;100.00
62557;BME280;48612;50.742;-1.226;2022-09-03T02:48:13;98156.53;;;15.38;100.00
62557;BME280;48612;50.742;-1.226;2022-09-03T02:50:41;98166.72;;;15.36;100.00
62557;BME280;48612;50.742;-1.226;2022-09-03T02:53:07;98163.91;;;15.32;100.00
62557;BME280;48612;50.742;-1.226;2022-09-03T02:55:32;98167.94;;;15.30;100.00
62557;BME280;48612;50.742;-1.226;2022-09-03T02:57:58;98164.03;;;15.27;100.00
62557;BME280;48612;50.742;-1.226;2022-09-03T03:00:25;98171.41;;;15.22;100.00
62557;BME280;48612;50.742;-1.226;2022-09-03T03:02:51;98173.41;;;15.16;100.00
62557;BME280;48612;50.742;-1.226;2022-09-03T03:05:23;98173.25;;;15.12;100.00
62557;BME280;48612;50.742;-1.226;2022-09-03T03:07:51;98173.88;;;15.09;100.00
62557;BME280;48612;50.742;-1.226;2022-09-03T03:10:17;98175.09;;;15.03;100.00
62557;BME280;48612;50.742;-1.226;2022-09-03T03:12:42;98176.53;;;15.01;100.00
62557;BME280;48612;50.742;-1.226;2022-09-03T03:15:08;98183.09;;;15.03;100.00
62557;BME280;48612;50.742;-1.226;2022-09-03T03:17:33;98189.81;;;15.01;100.00
62557;BME280;48612;50.742;-1.226;2022-09-03T03:19:59;98203.72;;;14.98;100.00
62557;BME280;48612;50.742;-1.226;2022-09-03T03:22:24;98213.09;;;14.95;100.00
62557;BME280;48612;50.742;-1.226;2022-09-03T03:24:50;98203.56;;;14.94;100.00
62557;BME280;48612;50.742;-1.226;2022-09-03T03:27:16;98207.00;;;14.94;100.00
62557;BME280;48612;50.742;-1.226;2022-09-03T03:29:43;98201.97;;;14.93;100.00
62557;BME280;48612;50.742;-1.226;2022-09-03T03:32:08;98193.06;;;14.89;100.00
62557;BME280;48612;50.742;-1.226;2022-09-03T03:34:34;98209.16;;;14.84;100.00
62557;BME280;48612;50.742;-1.226;2022-09-03T03:36:59;98203.69;;;14.80;100.00
62557;BME280;48612;50.742;-1.226;2022-09-03T03:39:25;98212.09;;;14.74;100.00
62557;BME280;48612;50.742;-1.226;2022-09-03T03:41:50;98215.34;;;14.70;100.00
62557;BME280;48612;50.742;-1.226;2022-09-03T03:44:16;98215.97;;;14.67;100.00
62557;BME280;48612;50.742;-1.226;2022-09-03T03:46:44;98201.13;;;14.66;100.00
62557;BME280;48612;50.742;-1.226;2022-09-03T03:49:10;98211.09;;;14.61;100.00
62557;BME280;48612;50.742;-1.226;2022-09-03T03:51:37;98217.97;;;14.62;100.00
62557;BME280;48612;50.742;-1.226;2022-09-03T03:54:03;98220.78;;;14.57;100.00
62557;BME280;48612;50.742;-1.226;2022-09-03T03:56:29;98223.09;;;14.58;100.00
62557;BME280;48612;50.742;-1.226;2022-09-03T03:58:55;98230.63;;;14.56;100.00
62557;BME280;48612;50.742;-1.226;2022-09-03T04:01:23;98233.56;;;14.55;100.00
62557;BME280;48612;50.742;-1.226;2022-09-03T04:03:48;98233.88;;;14.53;100.00
62557;BME280;48612;50.742;-1.226;2022-09-03T04:06:16;98229.03;;;14.55;100.00
62557;BME280;48612;50.742;-1.226;2022-09-03T04:08:43;98227.19;;;14.56;100.00
62557;BME280;48612;50.742;-1.226;2022-09-03T04:11:12;98226.38;;;14.55;100.00
62557;BME280;48612;50.742;-1.226;2022-09-03T04:13:40;98219.22;;;14.56;100.00
62557;BME280;48612;50.742;-1.226;2022-09-03T04:16:11;98218.91;;;14.57;100.00
62557;BME280;48612;50.742;-1.226;2022-09-03T04:18:38;98214.84;;;14.60;100.00
62557;BME280;48612;50.742;-1.226;2022-09-03T04:21:06;98211.59;;;14.63;100.00
62557;BME280;48612;50.742;-1.226;2022-09-03T04:23:34;98211.59;;;14.63;100.00
62557;BME280;48612;50.742;-1.226;2022-09-03T04:26:00;98209.72;;;14.63;100.00
62557;BME280;48612;50.742;-1.226;2022-09-03T04:28:26;98201.13;;;14.66;100.00
62557;BME280;48612;50.742;-1.226;2022-09-03T04:30:51;98207.69;;;14.69;100.00
62557;BME280;48612;50.742;-1.226;2022-09-03T04:33:17;98203.19;;;14.69;100.00
62557;BME280;48612;50.742;-1.226;2022-09-03T04:35:43;98208.50;;;14.69;100.00
62557;BME280;48612;50.742;-1.226;2022-09-03T04:38:08;98214.88;;;14.68;100.00
62557;BME280;48612;50.742;-1.226;2022-09-03T04:40:34;98223.00;;;14.72;100.00
62557;BME280;48612;50.742;-1.226;2022-09-03T04:42:59;98216.13;;;14.71;100.00
62557;BME280;48612;50.742;-1.226;2022-09-03T04:45:26;98220.53;;;14.76;100.00
62557;BME280;48612;50.742;-1.226;2022-09-03T04:48:00;98205.56;;;14.80;100.00
62557;BME280;48612;50.742;-1.226;2022-09-03T04:50:26;98179.63;;;14.85;100.00
62557;BME280;48612;50.742;-1.226;2022-09-03T04:52:59;98182.59;;;14.92;100.00
62557;BME280;48612;50.742;-1.226;2022-09-03T04:55:25;98179.31;;;14.95;100.00
62557;BME280;48612;50.742;-1.226;2022-09-03T04:57:50;98171.50;;;14.99;100.00
62557;BME280;48612;50.742;-1.226;2022-09-03T05:00:16;98161.66;;;15.00;100.00
62557;BME280;48612;50.742;-1.226;2022-09-03T05:02:45;98163.72;;;14.94;100.00
62557;BME280;48612;50.742;-1.226;2022-09-03T05:05:13;98161.34;;;14.92;100.00
62557;BME280;48612;50.742;-1.226;2022-09-03T05:07:39;98157.91;;;14.92;100.00
62557;BME280;48612;50.742;-1.226;2022-09-03T05:10:06;98152.31;;;14.93;100.00
62557;BME280;48612;50.742;-1.226;2022-09-03T05:12:33;98147.44;;;14.95;100.00
62557;BME280;48612;50.742;-1.226;2022-09-03T05:14:58;98147.91;;;14.98;100.00
62557;BME280;48612;50.742;-1.226;2022-09-03T05:17:25;98149.16;;;15.00;100.00
62557;BME280;48612;50.742;-1.226;2022-09-03T05:19:50;98148.53;;;15.03;100.00
62557;BME280;48612;50.742;-1.226;2022-09-03T05:22:17;98133.06;;;15.05;100.00
62557;BME280;48612;50.742;-1.226;2022-09-03T05:24:48;98142.91;;;15.13;100.00
62557;BME280;48612;50.742;-1.226;2022-09-03T05:27:15;98136.97;;;15.16;100.00
62557;BME280;48612;50.742;-1.226;2022-09-03T05:29:43;98128.88;;;15.22;100.00
62557;BME280;48612;50.742;-1.226;2022-09-03T05:32:10;98116.97;;;15.28;100.00
62557;BME280;48612;50.742;-1.226;2022-09-03T05:34:40;98108.38;;;15.31;100.00
62557;BME280;48612;50.742;-1.226;2022-09-03T05:37:05;98104.47;;;15.37;100.00
62557;BME280;48612;50.742;-1.226;2022-09-03T05:39:31;98102.72;;;15.41;100.00
62557;BME280;48612;50.742;-1.226;2022-09-03T05:41:56;98101.47;;;15.47;100.00
62557;BME280;48612;50.742;-1.226;2022-09-03T05:44:22;98091.13;;;15.54;100.00
62557;BME280;48612;50.742;-1.226;2022-09-03T05:46:48;98078.75;;;15.58;100.00
62557;BME280;48612;50.742;-1.226;2022-09-03T05:49:18;98072.97;;;15.65;100.00
62557;BME280;48612;50.742;-1.226;2022-09-03T05:51:44;98083.16;;;15.72;100.00
62557;BME280;48612;50.742;-1.226;2022-09-03T05:54:10;98076.09;;;15.76;100.00
62557;BME280;48612;50.742;-1.226;2022-09-03T05:56:39;98087.69;;;15.80;100.00
62557;BME280;48612;50.742;-1.226;2022-09-03T05:59:06;98076.41;;;15.83;100.00
62557;BME280;48612;50.742;-1.226;2022-09-03T06:01:37;98070.75;;;15.84;100.00
62557;BME280;48612;50.742;-1.226;2022-09-03T06:04:13;98075.59;;;15.91;100.00
62557;BME280;48612;50.742;-1.226;2022-09-03T06:06:41;98066.34;;;15.97;100.00
62557;BME280;48612;50.742;-1.226;2022-09-03T06:09:09;98067.25;;;16.01;100.00
62557;BME280;48612;50.742;-1.226;2022-09-03T06:11:36;98075.81;;;16.07;100.00
62557;BME280;48612;50.742;-1.226;2022-09-03T06:14:05;98068.16;;;16.14;100.00
62557;BME280;48612;50.742;-1.226;2022-09-03T06:16:34;98061.84;;;16.19;100.00
62557;BME280;48612;50.742;-1.226;2022-09-03T06:19:01;98057.91;;;16.25;100.00
62557;BME280;48612;50.742;-1.226;2022-09-03T06:21:27;98058.97;;;16.32;100.00
62557;BME280;48612;50.742;-1.226;2022-09-03T06:23:55;98054.50;;;16.45;100.00
62557;BME280;48612;50.742;-1.226;2022-09-03T06:26:21;98061.31;;;16.55;100.00
62557;BME280;48612;50.742;-1.226;2022-09-03T06:28:47;98053.94;;;16.60;100.00
62557;BME280;48612;50.742;-1.226;2022-09-03T06:31:18;98045.91;;;16.69;100.00
62557;BME280;48612;50.742;-1.226;2022-09-03T06:33:44;98040.06;;;16.76;100.00
62557;BME280;48612;50.742;-1.226;2022-09-03T06:36:13;98033.44;;;16.82;100.00
62557;BME280;48612;50.742;-1.226;2022-09-03T06:38:40;98027.56;;;16.89;100.00
62557;BME280;48612;50.742;-1.226;2022-09-03T06:41:08;98032.06;;;16.97;100.00
62557;BME280;48612;50.742;-1.226;2022-09-03T06:43:39;98031.31;;;17.08;100.00
62557;BME280;48612;50.742;-1.226;2022-09-03T06:46:09;98031.13;;;17.14;100.00
62557;BME280;48612;50.742;-1.226;2022-09-03T06:48:36;98029.38;;;17.18;100.00
62557;BME280;48612;50.742;-1.226;2022-09-03T06:51:08;98032.94;;;17.22;100.00
62557;BME280;48612;50.742;-1.226;2022-09-03T06:53:36;98031.81;;;17.23;100.00
62557;BME280;48612;50.742;-1.226;2022-09-03T06:56:03;98027.59;;;17.22;100.00
62557;BME280;48612;50.742;-1.226;2022-09-03T06:58:31;98021.94;;;17.23;100.00
62557;BME280;48612;50.742;-1.226;2022-09-03T07:01:05;98022.69;;;17.24;100.00
62557;BME280;48612;50.742;-1.226;2022-09-03T07:03:34;98025.84;;;17.26;100.00
62557;BME280;48612;50.742;-1.226;2022-09-03T07:06:01;98031.28;;;17.29;100.00
62557;BME280;48612;50.742;-1.226;2022-09-03T07:08:34;98036.09;;;17.36;100.00
62557;BME280;48612;50.742;-1.226;2022-09-03T07:11:07;98030.22;;;17.43;100.00
62557;BME280;48612;50.742;-1.226;2022-09-03T07:13:37;98019.00;;;17.49;100.00
62557;BME280;48612;50.742;-1.226;2022-09-03T07:16:11;98006.34;;;17.59;100.00
62557;BME280;48612;50.742;-1.226;2022-09-03T07:18:38;98015.69;;;17.65;100.00
62557;BME280;48612;50.742;-1.226;2022-09-03T07:21:07;98016.91;;;17.67;100.00
62557;BME280;48612;50.742;-1.226;2022-09-03T07:23:33;98016.38;;;17.74;100.00
62557;BME280;48612;50.742;-1.226;2022-09-03T07:26:07;98010.06;;;17.78;100.00
62557;BME280;48612;50.742;-1.226;2022-09-03T07:28:37;98006.19;;;17.88;100.00
62557;BME280;48612;50.742;-1.226;2022-09-03T07:31:08;98003.72;;;17.95;100.00
62557;BME280;48612;50.742;-1.226;2022-09-03T07:33:36;98002.50;;;18.05;100.00
62557;BME280;48612;50.742;-1.226;2022-09-03T07:36:09;98010.31;;;18.10;100.00
62557;BME280;48612;50.742;-1.226;2022-09-03T07:38:35;98017.41;;;18.06;100.00
62557;BME280;48612;50.742;-1.226;2022-09-03T07:41:03;98014.75;;;18.06;100.00
62557;BME280;48612;50.742;-1.226;2022-09-03T07:43:33;98014.84;;;18.10;100.00
62557;BME280;48612;50.742;-1.226;2022-09-03T07:46:03;98012.63;;;18.12;100.00
62557;BME280;48612;50.742;-1.226;2022-09-03T07:48:28;98015.19;;;18.20;100.00
62557;BME280;48612;50.742;-1.226;2022-09-03T07:50:58;98009.72;;;18.29;100.00
62557;BME280;48612;50.742;-1.226;2022-09-03T07:53:26;98011.81;;;18.36;100.00
62557;BME280;48612;50.742;-1.226;2022-09-03T07:55:52;98012.72;;;18.40;100.00
62557;BME280;48612;50.742;-1.226;2022-09-03T07:58:18;98011.81;;;18.48;100.00
62557;BME280;48612;50.742;-1.226;2022-09-03T08:00:49;98010.56;;;18.58;100.00
62557;BME280;48612;50.742;-1.226;2022-09-03T08:03:14;97999.75;;;18.66;100.00
62557;BME280;48612;50.742;-1.226;2022-09-03T08:05:41;98000.75;;;18.74;100.00
62557;BME280;48612;50.742;-1.226;2022-09-03T08:08:06;98004.38;;;18.82;100.00
62557;BME280;48612;50.742;-1.226;2022-09-03T08:10:35;97994.88;;;18.96;100.00
62557;BME280;48612;50.742;-1.226;2022-09-03T08:13:02;97980.53;;;19.17;100.00
62557;BME280;48612;50.742;-1.226;2022-09-03T08:15:30;97985.47;;;19.31;100.00
62557;BME280;48612;50.742;-1.226;2022-09-03T08:17:56;97978.13;;;19.43;100.00
62557;BME280;48612;50.742;-1.226;2022-09-03T08:20:23;97990.50;;;19.64;100.00
62557;BME280;48612;50.742;-1.226;2022-09-03T08:22:49;97989.47;;;19.84;100.00
62557;BME280;48612;50.742;-1.226;2022-09-03T08:25:15;98007.44;;;19.84;100.00
62557;BME280;48612;50.742;-1.226;2022-09-03T08:27:41;98034.38;;;19.75;100.00
62557;BME280;48612;50.742;-1.226;2022-09-03T08:30:07;98057.19;;;19.69;100.00
62557;BME280;48612;50.742;-1.226;2022-09-03T08:32:38;98072.59;;;19.60;100.00
62557;BME280;48612;50.742;-1.226;2022-09-03T08:35:06;98076.19;;;19.52;100.00
62557;BME280;48612;50.742;-1.226;2022-09-03T08:37:33;98083.25;;;19.44;100.00
62557;BME280;48612;50.742;-1.226;2022-09-03T08:39:59;98085.81;;;19.40;100.00
62557;BME280;48612;50.742;-1.226;2022-09-03T08:42:42;98098.28;;;19.49;100.00
62557;BME280;48612;50.742;-1.226;2022-09-03T08:45:16;98102.97;;;19.52;100.00
62557;BME280;48612;50.742;-1.226;2022-09-03T08:48:13;98112.84;;;19.63;100.00
62557;BME280;48612;50.742;-1.226;2022-09-03T08:50:45;98125.59;;;19.82;100.00
62557;BME280;48612;50.742;-1.226;2022-09-03T08:53:47;98127.69;;;20.05;100.00
62557;BME280;48612;50.742;-1.226;2022-09-03T08:56:23;98152.31;;;20.26;100.00
62557;BME280;48612;50.742;-1.226;2022-09-03T08:58:53;98182.94;;;20.41;100.00
62557;BME280;48612;50.742;-1.226;2022-09-03T09:18:58;98354.00;;;20.11;100.00
62557;BME280;48612;50.742;-1.226;2022-09-03T09:21:41;98375.91;;;20.01;100.00
62557;BME280;48612;50.742;-1.226;2022-09-03T09:24:22;98383.94;;;20.01;100.00
62557;BME280;48612;50.742;-1.226;2022-09-03T09:26:55;98397.22;;;19.97;100.00
62557;BME280;48612;50.742;-1.226;2022-09-03T09:29:25;98420.56;;;19.97;100.00
62557;BME280;48612;50.742;-1.226;2022-09-03T09:31:52;98423.09;;;20.05;100.00
62557;BME280;48612;50.742;-1.226;2022-09-03T09:34:18;98441.75;;;20.14;100.00
62557;BME280;48612;50.742;-1.226;2022-09-03T09:36:47;98461.81;;;20.20;100.00
62557;BME280;48612;50.742;-1.226;2022-09-03T09:39:14;98490.19;;;20.21;100.00
62557;BME280;48612;50.742;-1.226;2022-09-03T09:41:59;98501.31;;;20.23;100.00
62557;BME280;48612;50.742;-1.226;2022-09-03T09:44:32;98512.59;;;20.41;100.00
62557;BME280;48612;50.742;-1.226;2022-09-03T09:52:13;98557.63;;;21.16;100.00
62557;BME280;48612;50.742;-1.226;2022-09-03T09:54:41;98568.81;;;21.18;100.00
62557;BME280;48612;50.742;-1.226;2022-09-03T09:57:14;98591.91;;;21.35;100.00
62557;BME280;48612;50.742;-1.226;2022-09-03T09:59:43;98616.31;;;21.58;100.00
62557;BME280;48612;50.742;-1.226;2022-09-03T10:04:41;98678.84;;;21.87;100.00
62557;BME280;48612;50.742;-1.226;2022-09-03T10:07:29;98699.56;;;22.02;100.00
62557;BME280;48612;50.742;-1.226;2022-09-03T10:10:27;98724.78;;;21.97;100.00
62557;BME280;48612;50.742;-1.226;2022-09-03T10:13:17;98735.22;;;21.99;100.00
62557;BME280;48612;50.742;-1.226;2022-09-03T10:16:36;98766.91;;;21.93;100.00
62557;BME280;48612;50.742;-1.226;2022-09-03T10:21:53;98796.03;;;21.91;100.00
62557;BME280;48612;50.742;-1.226;2022-09-03T10:27:09;98810.03;;;22.25;100.00
62557;BME280;48612;50.742;-1.226;2022-09-03T10:29:39;98843.94;;;22.30;100.00
62557;BME280;48612;50.742;-1.226;2022-09-03T10:37:17;98925.03;;;22.44;100.00
62557;BME280;48612;50.742;-1.226;2022-09-03T10:39:53;98926.19;;;22.59;100.00
62557;BME280;48612;50.742;-1.226;2022-09-03T10:42:37;98942.03;;;22.76;100.00
62557;BME280;48612;50.742;-1.226;2022-09-03T10:45:17;98951.03;;;22.96;100.00
62557;BME280;48612;50.742;-1.226;2022-09-03T10:51:04;98992.22;;;23.12;100.00
62557;BME280;48612;50.742;-1.226;2022-09-03T10:53:38;99018.44;;;23.43;100.00
62557;BME280;48612;50.742;-1.226;2022-09-03T10:56:12;99051.28;;;23.65;100.00
62557;BME280;48612;50.742;-1.226;2022-09-03T11:01:21;99072.06;;;23.20;100.00
62557;BME280;48612;50.742;-1.226;2022-09-03T11:03:58;99061.38;;;23.24;100.00
62557;BME280;48612;50.742;-1.226;2022-09-03T11:09:36;99093.06;;;23.59;100.00
62557;BME280;48612;50.742;-1.226;2022-09-03T11:12:11;99137.81;;;23.76;100.00
62557;BME280;48612;50.742;-1.226;2022-09-03T11:14:46;99147.50;;;23.64;100.00
62557;BME280;48612;50.742;-1.226;2022-09-03T11:17:23;99159.38;;;23.48;100.00
62557;BME280;48612;50.742;-1.226;2022-09-03T11:19:54;99157.59;;;23.39;100.00
62557;BME280;48612;50.742;-1.226;2022-09-03T11:22:22;99179.13;;;23.39;100.00
62557;BME280;48612;50.742;-1.226;2022-09-03T11:24:56;99190.34;;;23.41;100.00
62557;BME280;48612;50.742;-1.226;2022-09-03T11:30:21;99214.03;;;23.48;100.00
62557;BME280;48612;50.742;-1.226;2022-09-03T11:32:57;99228.94;;;23.58;100.00
62557;BME280;48612;50.742;-1.226;2022-09-03T11:41:00;99309.50;;;23.63;100.00
62557;BME280;48612;50.742;-1.226;2022-09-03T11:43:32;99318.63;;;23.46;100.00
62557;BME280;48612;50.742;-1.226;2022-09-03T11:46:06;99322.66;;;23.52;100.00
62557;BME280;48612;50.742;-1.226;2022-09-03T11:48:44;99320.19;;;23.59;100.00
62557;BME280;48612;50.742;-1.226;2022-09-03T11:51:39;99348.03;;;23.51;100.00
62557;BME280;48612;50.742;-1.226;2022-09-03T11:57:22;99365.66;;;23.61;100.00
62557;BME280;48612;50.742;-1.226;2022-09-03T11:59:53;99362.06;;;23.32;100.00
62557;BME280;48612;50.742;-1.226;2022-09-03T12:02:28;99361.63;;;23.18;100.00
62557;BME280;48612;50.742;-1.226;2022-09-03T12:05:25;99371.81;;;23.00;100.00
62557;BME280;48612;50.742;-1.226;2022-09-03T12:08:34;99363.41;;;23.02;100.00
62557;BME280;48612;50.742;-1.226;2022-09-03T12:16:59;99374.97;;;23.14;100.00
62557;BME280;48612;50.742;-1.226;2022-09-03T12:22:12;99388.00;;;23.49;100.00
62557;BME280;48612;50.742;-1.226;2022-09-03T12:24:39;99399.56;;;23.37;100.00
62557;BME280;48612;50.742;-1.226;2022-09-03T12:27:09;99391.59;;;23.16;100.00
62557;BME280;48612;50.742;-1.226;2022-09-03T12:29:37;99385.06;;;23.17;100.00
62557;BME280;48612;50.742;-1.226;2022-09-03T12:32:10;99383.94;;;23.18;100.00
62557;BME280;48612;50.742;-1.226;2022-09-03T12:34:37;99389.34;;;23.18;100.00
62557;BME280;48612;50.742;-1.226;2022-09-03T12:37:20;99398.53;;;23.17;100.00
62557;BME280;48612;50.742;-1.226;2022-09-03T12:39:54;99415.28;;;23.23;100.00
62557;BME280;48612;50.742;-1.226;2022-09-03T12:42:28;99423.31;;;23.11;100.00
62557;BME280;48612;50.742;-1.226;2022-09-03T12:45:04;99416.69;;;23.08;100.00
62557;BME280;48612;50.742;-1.226;2022-09-03T12:47:38;99425.66;;;23.00;100.00
62557;BME280;48612;50.742;-1.226;2022-09-03T12:50:07;99414.91;;;23.00;100.00
62557;BME280;48612;50.742;-1.226;2022-09-03T12:52:34;99423.09;;;23.04;100.00
62557;BME280;48612;50.742;-1.226;2022-09-03T13:00:23;99442.78;;;23.65;100.00
62557;BME280;48612;50.742;-1.226;2022-09-03T13:05:24;99455.25;;;23.70;100.00
62557;BME280;48612;50.742;-1.226;2022-09-03T13:07:55;99460.53;;;23.79;100.00
62557;BME280;48612;50.742;-1.226;2022-09-03T13:10:27;99467.03;;;23.90;100.00
62557;BME280;48612;50.742;-1.226;2022-09-03T13:12:58;99478.03;;;23.97;100.00
62557;BME280;48612;50.742;-1.226;2022-09-03T13:15:26;99499.75;;;23.88;100.00
62557;BME280;48612;50.742;-1.226;2022-09-03T13:17:54;99478.72;;;23.57;100.00
62557;BME280;48612;50.742;-1.226;2022-09-03T13:20:32;99476.69;;;23.54;100.00
62557;BME280;48612;50.742;-1.226;2022-09-03T13:23:12;99474.88;;;23.58;100.00
62557;BME280;48612;50.742;-1.226;2022-09-03T13:25:56;99464.59;;;23.73;100.00
62557;BME280;48612;50.742;-1.226;2022-09-03T13:31:49;99493.00;;;23.82;100.00
62557;BME280;48612;50.742;-1.226;2022-09-03T13:34:23;99477.94;;;23.69;100.00
62557;BME280;48612;50.742;-1.226;2022-09-03T13:37:01;99491.44;;;23.81;100.00
62557;BME280;48612;50.742;-1.226;2022-09-03T13:42:09;99506.91;;;23.97;100.00
62557;BME280;48612;50.742;-1.226;2022-09-03T13:44:46;99515.22;;;24.04;100.00
62557;BME280;48612;50.742;-1.226;2022-09-03T13:47:42;99522.97;;;24.17;100.00
62557;BME280;48612;50.742;-1.226;2022-09-03T13:50:43;99539.66;;;24.60;100.00
62557;BME280;48612;50.742;-1.226;2022-09-03T13:53:44;99557.00;;;24.34;100.00
62557;BME280;48612;50.742;-1.226;2022-09-03T14:01:42;99577.59;;;24.02;100.00
62557;BME280;48612;50.742;-1.226;2022-09-03T14:04:16;99577.38;;;23.95;100.00
62557;BME280;48612;50.742;-1.226;2022-09-03T14:06:51;99574.41;;;23.88;100.00
62557;BME280;48612;50.742;-1.226;2022-09-03T14:09:32;99601.59;;;23.83;100.00
62557;BME280;48612;50.742;-1.226;2022-09-03T14:12:16;99619.09;;;23.77;100.00
62557;BME280;48612;50.742;-1.226;2022-09-03T14:14:54;99644.03;;;23.74;100.00
62557;BME280;48612;50.742;-1.226;2022-09-03T14:17:40;99673.66;;;23.74;100.00
62557;BME280;48612;50.742;-1.226;2022-09-03T14:20:28;99687.50;;;23.72;100.00
62557;BME280;48612;50.742;-1.226;2022-09-03T14:23:24;99679.53;;;23.76;100.00
62557;BME280;48612;50.742;-1.226;2022-09-03T14:25:57;99678.75;;;23.75;100.00
62557;BME280;48612;50.742;-1.226;2022-09-03T14:28:40;99684.91;;;23.76;100.00
62557;BME280;48612;50.742;-1.226;2022-09-03T14:31:24;99701.13;;;23.67;100.00
62557;BME280;48612;50.742;-1.226;2022-09-03T14:45:47;99693.06;;;23.46;100.00
62557;BME280;48612;50.742;-1.226;2022-09-03T14:56:49;99640.47;;;23.94;100.00
62557;BME280;48612;50.742;-1.226;2022-09-03T15:12:51;99598.59;;;22.97;100.00
62557;BME280;48612;50.742;-1.226;2022-09-03T15:15:22;99594.13;;;23.01;100.00
62557;BME280;48612;50.742;-1.226;2022-09-03T15:20:52;99582.56;;;22.59;100.00
62557;BME280;48612;50.742;-1.226;2022-09-03T15:23:23;99578.69;;;22.47;100.00
62557;BME280;48612;50.742;-1.226;2022-09-03T15:31:13;99534.25;;;22.41;100.00
62557;BME280;48612;50.742;-1.226;2022-09-03T15:36:43;99497.53;;;22.45;100.00
62557;BME280;48612;50.742;-1.226;2022-09-03T15:39:23;99504.94;;;22.48;100.00
62557;BME280;48612;50.742;-1.226;2022-09-03T15:41:55;99503.16;;;22.52;100.00
62557;BME280;48612;50.742;-1.226;2022-09-03T15:44:40;99489.19;;;22.59;100.00
62557;BME280;48612;50.742;-1.226;2022-09-03T15:52:58;99480.06;;;22.72;100.00
62557;BME280;48612;50.742;-1.226;2022-09-03T15:55:36;99481.38;;;22.66;100.00
62557;BME280;48612;50.742;-1.226;2022-09-03T15:58:26;99479.69;;;22.62;100.00
62557;BME280;48612;50.742;-1.226;2022-09-03T16:01:27;99497.38;;;22.42;100.00
62557;BME280;48612;50.742;-1.226;2022-09-03T16:07:01;99557.00;;;22.23;100.00
62557;BME280;48612;50.742;-1.226;2022-09-03T16:12:13;99566.78;;;21.89;100.00